Change the Weather History Date:

Sunday, March 24, 2013

  Actual Average Record
Temperature  
Mean Temperature 28 °F 44 °F  
Max Temperature 30 °F 54 °F 82 °F (1967)
Min Temperature 26 °F 33 °F 4 °F (1965)
Degree Days  
Heating Degree Days 37 21  
Month to date heating degree days 790 634  
Since 1 July heating degree days 5188 5351  
Cooling Degree Days 0 0  
Month to date cooling degree days 0 0  
Year to date cooling degree days 0 0  
Moisture  
Dew Point 24 °F    
Average Humidity 87    
Maximum Humidity 92    
Minimum Humidity 81    
Precipitation  
Precipitation 0.10 in 0.08 in 1.48 in (2009)
Month to date precipitation 1.36 1.62  
Sea Level Pressure  
Sea Level Pressure 29.93 in    
Wind  
Wind Speed 17 mph (NNW)    
Max Wind Speed 24 mph    
Max Gust Speed 32 mph    
Visibility 2 miles    
Events Snow    
T = Trace of Precipitation, MM = Missing Value Source: NWS Daily Summary

Daily Weather History Graph

Daily Weather History Graph

Search for Another Location

Airport or City:

Trip Planner

Search our weather history database for the weather conditions in past years. The results will help you decide how hot, cold, wet, or windy it might be!

Date:

Astronomy

Mar. 24, 2013 Rise Set
Actual Time 7:11 AM CDT 7:32 PM CDT
Civil Twilight 6:44 AM CDT 7:59 PM CDT
Nautical Twilight 6:12 AM CDT 8:31 PM CDT
Astronomical Twilight 5:39 AM CDT 9:04 PM CDT
Moon 5:00 PM CDT (3/24) 5:23 AM CDT (3/24)
Length of Visible Light 13h 15m
Length of Day
12h 20m
Waxing Gibbous, 92% of the Moon is Illuminated
Mar 24
Waxing Gibbous
Mar 27
Full
Apr 2
Last Quarter
Apr 10
New
Apr 18
First Quarter

Hourly Weather History & Observations

Time (CDT) Temp. Windchill Dew Point Humidity Pressure Visibility Wind Dir Wind Speed Gust Speed Precip Events Conditions
12:12 AM 30.2 °F 18.1 °F 26.6 °F 86% 29.96 in 3.0 mi NNE 18.4 mph 25.3 mph 0.00 in Snow Light Snow
12:53 AM 30.0 °F 19.1 °F 27.0 °F 88% 30.00 in 3.0 mi NNE 15.0 mph - 0.00 in Snow Light Snow
1:33 AM 30.2 °F 19.8 °F 26.6 °F 86% 29.96 in 2.5 mi NNE 13.8 mph - 0.00 in Snow Light Snow
1:53 AM 28.9 °F 17.3 °F 26.1 °F 89% 29.98 in 1.8 mi NNE 16.1 mph - 0.00 in Snow Light Snow
2:53 AM 28.9 °F 16.9 °F 26.1 °F 89% 29.96 in 2.0 mi NNE 17.3 mph 26.5 mph 0.02 in Snow Light Snow
3:16 AM 28.4 °F 16.2 °F 26.6 °F 93% 29.92 in 1.8 mi NNE 17.3 mph 23.0 mph 0.00 in Snow Light Snow
3:26 AM 28.4 °F 17.5 °F 26.6 °F 93% 29.92 in 2.0 mi North 13.8 mph - 0.00 in Snow Light Snow
3:43 AM 28.4 °F 17.0 °F 26.6 °F 93% 29.92 in 3.0 mi NNE 15.0 mph 21.9 mph 0.00 in Snow Light Snow
3:53 AM 28.0 °F 15.7 °F 25.0 °F 88% 29.94 in 2.0 mi NNE 17.3 mph - 0.00 in Snow Light Snow
4:02 AM 28.4 °F 15.4 °F 24.8 °F 86% 29.90 in 1.5 mi North 19.6 mph 25.3 mph 0.00 in Snow Light Snow
4:30 AM 28.4 °F 18.0 °F 24.8 °F 86% 29.91 in 2.0 mi NNE 12.7 mph - 0.01 in Snow Light Snow
4:46 AM 28.4 °F 17.0 °F 24.8 °F 86% 29.91 in 1.8 mi North 15.0 mph 23.0 mph 0.01 in Snow Light Snow
4:53 AM 28.0 °F 16.5 °F 25.0 °F 88% 29.94 in 1.5 mi North 15.0 mph - 0.01 in Snow Light Snow
5:22 AM 28.4 °F 18.0 °F 24.8 °F 86% 29.89 in 1.5 mi North 12.7 mph - 0.01 in Snow Light Snow
5:36 AM 28.4 °F 17.0 °F 24.8 °F 86% 29.89 in 1.8 mi North 15.0 mph - 0.01 in Snow Light Snow
5:53 AM 28.0 °F 17.0 °F 25.0 °F 88% 29.92 in 1.2 mi North 13.8 mph - 0.02 in Snow Light Snow
6:15 AM 28.4 °F 16.6 °F 24.8 °F 86% 29.89 in 0.8 mi North 16.1 mph - 0.01 in Snow Light Snow
6:25 AM 28.4 °F 16.2 °F 24.8 °F 86% 29.89 in 1.0 mi North 17.3 mph - 0.01 in Snow Light Snow
6:53 AM 28.0 °F 16.1 °F 25.0 °F 88% 29.94 in 1.2 mi North 16.1 mph - 0.02 in Snow Light Snow
7:17 AM 26.6 °F 13.8 °F 24.8 °F 93% 29.90 in 1.2 mi North 17.3 mph 23.0 mph 0.01 in Snow Light Snow
7:41 AM 26.6 °F 14.3 °F 24.8 °F 93% 29.91 in 0.8 mi North 16.1 mph 23.0 mph 0.01 in Snow Light Snow
7:53 AM 27.0 °F 15.6 °F 24.1 °F 89% 29.95 in 0.8 mi North 13.8 mph - 0.01 in Snow Light Snow
8:11 AM 26.6 °F 14.3 °F 23.0 °F 86% 29.90 in 1.0 mi NNW 16.1 mph - 0.01 in Snow Light Snow
8:21 AM 26.6 °F 15.2 °F 23.0 °F 86% 29.91 in 0.8 mi North 13.8 mph 23.0 mph 0.01 in Snow Light Snow
8:44 AM 26.6 °F 14.3 °F 23.0 °F 86% 29.90 in 1.0 mi North 16.1 mph - 0.02 in Snow Light Snow
8:53 AM 26.1 °F 13.6 °F 23.0 °F 88% 29.95 in 1.0 mi North 16.1 mph - 0.02 in Snow Light Snow
9:42 AM 26.6 °F 13.4 °F 23.0 °F 86% 29.89 in 1.2 mi North 18.4 mph 25.3 mph 0.00 in Snow Light Snow
9:49 AM 26.6 °F 13.4 °F 23.0 °F 86% 29.90 in 1.0 mi North 18.4 mph 25.3 mph 0.00 in Snow Light Snow
9:53 AM 26.1 °F 12.7 °F 23.0 °F 88% 29.94 in 1.0 mi NNW 18.4 mph - 0.00 in Snow Light Snow
10:46 AM 26.6 °F 13.8 °F 23.0 °F 86% 29.90 in 1.8 mi North 17.3 mph 25.3 mph 0.00 in Snow Light Snow
10:53 AM 27.0 °F 13.5 °F 23.0 °F 85% 29.94 in 2.0 mi NNW 19.6 mph 24.2 mph 0.00 in Snow Light Snow
11:22 AM 26.6 °F 13.1 °F 21.2 °F 80% 29.90 in 1.5 mi North 19.6 mph 26.5 mph N/A Snow Light Snow
11:53 AM 27.0 °F 14.7 °F 23.0 °F 85% 29.94 in 1.0 mi NNW 16.1 mph 26.5 mph 0.00 in Snow Light Snow
12:03 PM 28.4 °F 15.4 °F 23.0 °F 80% 29.90 in 1.0 mi North 19.6 mph 24.2 mph 0.00 in Snow Light Snow
12:18 PM 28.4 °F 16.6 °F 24.8 °F 86% 29.89 in 1.0 mi NNW 16.1 mph - 0.00 in Snow Light Snow
12:53 PM 28.0 °F 17.0 °F 24.1 °F 85% 29.93 in 1.0 mi NNW 13.8 mph 23.0 mph 0.00 in Snow Light Snow
1:21 PM 28.4 °F 15.8 °F 24.8 °F 86% 29.88 in 2.0 mi NNW 18.4 mph 27.6 mph 0.00 in Snow Light Snow
1:36 PM 28.4 °F 17.5 °F 24.8 °F 86% 29.88 in 1.8 mi NNW 13.8 mph 24.2 mph 0.00 in Snow Light Snow
1:53 PM 28.9 °F 15.8 °F 24.1 °F 82% 29.92 in 1.2 mi NNW 20.7 mph 27.6 mph 0.00 in Snow Light Snow
2:24 PM 28.4 °F 16.2 °F 24.8 °F 86% 29.87 in 1.0 mi NNW 17.3 mph 23.0 mph 0.00 in Snow Light Snow
2:32 PM 28.4 °F 15.1 °F 24.8 °F 86% 29.87 in 1.0 mi NNW 20.7 mph 24.2 mph 0.00 in Snow Light Snow
2:53 PM 28.9 °F 17.3 °F 25.0 °F 85% 29.91 in 1.2 mi NNW 16.1 mph 26.5 mph 0.00 in Snow Light Snow
3:14 PM 28.4 °F 15.1 °F 24.8 °F 86% 29.87 in 1.5 mi NNW 20.7 mph 26.5 mph 0.00 in Snow Light Snow
3:26 PM 30.2 °F 18.9 °F 24.8 °F 80% 29.88 in 1.2 mi NNW 16.1 mph 26.5 mph 0.00 in Snow Light Snow
3:53 PM 28.9 °F 16.1 °F 25.0 °F 85% 29.93 in 1.0 mi NNW 19.6 mph 25.3 mph 0.00 in Snow Light Snow
4:21 PM 28.4 °F 15.8 °F 24.8 °F 86% 29.88 in 1.2 mi NNW 18.4 mph 31.1 mph 0.00 in Snow Light Snow
4:53 PM 28.9 °F 16.5 °F 24.1 °F 82% 29.94 in 1.5 mi NNW 18.4 mph 26.5 mph 0.00 in Snow Light Snow
5:08 PM 28.4 °F 17.0 °F 24.8 °F 86% 29.90 in 1.2 mi NNW 15.0 mph - 0.00 in Snow Light Snow
5:22 PM 28.4 °F 16.6 °F 24.8 °F 86% 29.90 in 1.2 mi NW 16.1 mph 24.2 mph 0.00 in Snow Light Snow
5:44 PM 28.4 °F 15.4 °F 24.8 °F 86% 29.91 in 1.8 mi NW 19.6 mph 26.5 mph 0.00 in Snow Light Snow
5:53 PM 28.9 °F 16.5 °F 25.0 °F 85% 29.95 in 1.8 mi NNW 18.4 mph 26.5 mph 0.00 in Snow Light Snow
6:11 PM 28.4 °F 15.4 °F 24.8 °F 86% 29.92 in 2.0 mi NNW 19.6 mph 26.5 mph 0.00 in Snow Light Snow
6:53 PM 28.9 °F 17.3 °F 25.0 °F 85% 29.97 in 2.0 mi NW 16.1 mph - 0.00 in Snow Light Snow
7:01 PM 28.4 °F 18.0 °F 24.8 °F 86% 29.93 in 1.8 mi NW 12.7 mph - 0.00 in Snow Light Snow
7:18 PM 28.4 °F 16.2 °F 24.8 °F 86% 29.94 in 1.2 mi NW 17.3 mph 24.2 mph 0.00 in Snow Light Snow
7:42 PM 28.4 °F 15.8 °F 24.8 °F 86% 29.94 in 2.5 mi NW 18.4 mph 27.6 mph 0.00 in Snow Light Snow
7:51 PM 28.4 °F 16.2 °F 24.8 °F 86% 29.94 in 3.0 mi NW 17.3 mph 27.6 mph 0.00 in Snow Light Snow
7:53 PM 28.0 °F 15.7 °F 24.1 °F 85% 29.99 in 3.0 mi NW 17.3 mph 25.3 mph 0.00 in Snow Light Snow
8:53 PM 27.0 °F 13.5 °F 24.1 °F 89% 30.00 in 2.5 mi WNW 19.6 mph - 0.00 in Snow Light Snow
9:34 PM 26.6 °F 13.4 °F 23.0 °F 86% 29.96 in 2.0 mi NW 18.4 mph 28.8 mph 0.00 in Snow Light Snow
9:53 PM 26.1 °F 11.6 °F 21.9 °F 84% 30.01 in 2.5 mi WNW 21.9 mph 25.3 mph 0.00 in Snow Light Snow
10:02 PM 26.6 °F 13.1 °F 21.2 °F 80% 29.96 in 4.0 mi NW 19.6 mph 28.8 mph 0.00 in Snow Light Snow
10:35 PM 26.6 °F 13.1 °F 21.2 °F 80% 29.96 in 10.0 mi NW 19.6 mph 26.5 mph 0.00 in   Overcast
10:53 PM 26.1 °F 12.7 °F 21.0 °F 81% 30.01 in 10.0 mi NW 18.4 mph 26.5 mph 0.00 in   Overcast
11:04 PM 26.6 °F 13.1 °F 21.2 °F 80% 29.96 in 10.0 mi NW 19.6 mph - N/A   Overcast
11:53 PM 26.1 °F 12.0 °F 21.9 °F 84% 30.01 in 10.0 mi NW 20.7 mph - N/A   Overcast